Aeroporto :
LOGIN :

Iscrizione | Disclaimer

   EN    FR    IT 

 










Sommario :    VFR   VFR Marginale   IFR   IFR Intensivo   IFR Molto Intensivo
Visibilità : 
Base nubi : 
>= 8 km
>= 3000ft
5 / 8 km
1000 / 3000 ft
1500m / 5 km
500 / 1000 ft
800 / 1500m
200 / 500 ft
< 800m
< 200 ft
Simboli :   Temporali  Nebbia  Neve Forte  Precipitazioni Forti  Vento > 20 kt
SIGMETs :   Varie  Temporali  Ghiacco  Turbolenza  Onda orograficha  Ceneri Vulcaniche






- Altitudine del aeroporto : 40 ft
- Codice IATA : RMI


LIPR - Federico Fellini Int. Rimini

ULTIMO METAR :
  • 020720Z 15007KT 9999 BKN060 12/08 Q1008

METARs OBSOLETI :
  • 020650Z 15004KT 9999 BKN060 12/08 Q1008
  • 020620Z 14004KT 9999 -RA BKN060 11/08 Q1008
  • 020550Z AUTO 17003KT 9999 BKN056/// 11/07 Q1008
  • 020520Z AUTO 15007KT 120V190 9999 BKN056/// 11/07 Q1007
  • 020450Z AUTO 16006KT 9999 OVC060/// 12/07 Q1007
  • 020420Z AUTO 18007KT 9999 OVC058/// 12/07 Q1007
  • 012050Z 18005KT 9999 SCT050 12/08 Q1006
  • 020350Z AUTO 17006KT 9999 OVC059/// 12/07 Q1007
  • 020320Z AUTO 18006KT 140V200 9999 OVC060/// 12/07 Q1007
  • 020250Z AUTO 16004KT 9999 OVC061/// 12/07 Q1007

TAF TAF LIPR
Valido dal 02 a 06 ore il 03 a 06 ore UTC


020500Z 0206/0306 18008KT 9999 SCT020 SCT060
TEMPO 0206/0209 RA
BECMG 0221/0223 10010KT



MetMap, La meteo Aeronautica in un colpo d'occhio ! - Copyright ORBIFLY Dicembre 2007 - Disclaimer

ORBIFLY MET'MAP TEAM :

Programmazione e sviluppo : Alexandra Zaïnal
Concezione : Baudouin d'Aumeries
Supporto tecnico e logistico : Manuel Goepfert
Aiuto : Marc-Olivier Méhu
Aiuto per la traduzione : Arnaldo La Scala




FONTI E CREDITI :

   NOAA